Time;durP1;ratioP1;P1;durP2;ratioP2;P2;SDS_P1;SDS_P2;PMS_P1;PMS_P2;Temp;Humidity;BMP_temperature;BMP_pressure;BME280_temperature;BME280_humidity;BME280_pressure;Samples;Min_cycle;Max_cycle;Signal;HPM_P1;HPM_P2
2021/01/14 00:00:44;;;;;;;2.53;1.10;;;;;;;16.92;53.41;101877.75;6306025;22;20018;-79
2021/01/14 00:03:11;;;;;;;2.60;1.30;;;;;;;16.92;52.97;101882.06;6280752;22;20011;-78
2021/01/14 00:05:38;;;;;;;2.45;0.90;;;;;;;16.92;53.52;101876.88;6333300;22;20011;-78
2021/01/14 00:08:05;;;;;;;3.92;0.95;;;;;;;16.92;53.10;101871.66;6308429;22;20007;-79
2021/01/14 00:10:30;;;;;;;2.75;0.90;;;;;;;16.91;53.08;101875.13;6292568;22;20006;-78
2021/01/14 00:12:56;;;;;;;2.72;1.10;;;;;;;16.91;52.83;101875.13;6278019;22;20011;-79
2021/01/14 00:15:21;;;;;;;2.47;1.05;;;;;;;16.91;53.11;101868.22;6277185;22;20023;-78
2021/01/14 00:17:47;;;;;;;2.40;1.05;;;;;;;16.89;53.02;101869.06;6276046;22;20004;-80
2021/01/14 00:20:18;;;;;;;2.63;0.93;;;;;;;16.90;53.66;101874.28;6248194;22;20007;-78
2021/01/14 00:22:46;;;;;;;2.38;1.05;;;;;;;16.89;52.41;101871.66;6277997;22;19988;-78
2021/01/14 00:25:13;;;;;;;2.63;1.10;;;;;;;16.90;53.50;101884.69;6252032;22;20008;-78
2021/01/14 00:27:39;;;;;;;3.13;1.23;;;;;;;16.88;52.45;101881.19;6279252;22;19984;-78
2021/01/14 00:30:14;;;;;;;3.22;1.20;;;;;;;16.89;53.06;101882.06;6277269;22;20014;-78
2021/01/14 00:32:40;;;;;;;5.60;1.10;;;;;;;16.88;53.13;101881.19;6276491;22;20011;-79
2021/01/14 00:35:07;;;;;;;2.67;1.00;;;;;;;16.89;53.32;101876.84;6275166;22;19996;-78
2021/01/14 00:38:00;;;;;;;2.55;0.95;;;;;;;16.88;53.92;101878.59;6277124;22;20011;-78
2021/01/14 00:40:27;;;;;;;2.40;0.98;;;;;;;16.85;52.63;101878.53;6207608;23;20005;-78
2021/01/14 00:43:05;;;;;;;3.53;1.02;;;;;;;16.86;52.98;101883.75;6224756;22;20022;-78
2021/01/14 00:45:32;;;;;;;2.50;1.10;;;;;;;16.88;53.33;101890.72;6260671;22;20054;-77
2021/01/14 00:47:59;;;;;;;2.00;0.90;;;;;;;16.87;53.35;101897.63;6277111;22;20015;-80
2021/01/14 00:50:25;;;;;;;2.95;1.00;;;;;;;16.87;52.89;101892.44;6330856;22;20094;-78
2021/01/14 00:52:51;;;;;;;2.80;0.90;;;;;;;16.84;52.79;101887.22;6334650;22;20047;-78
2021/01/14 00:55:18;;;;;;;2.67;1.05;;;;;;;16.86;53.03;101890.69;6298754;22;20014;-78
2021/01/14 00:57:46;;;;;;;1.10;0.70;;;;;;;16.86;53.31;101885.50;6329363;22;20051;-78
2021/01/14 01:00:14;;;;;;;1.80;0.68;;;;;;;16.85;52.66;101889.84;6301407;22;20011;-78
2021/01/14 01:02:44;;;;;;;2.65;1.10;;;;;;;16.85;52.85;101892.44;6306208;22;19992;-80
2021/01/14 01:05:12;;;;;;;2.38;1.00;;;;;;;16.85;52.32;101887.22;6285017;22;19999;-78
2021/01/14 01:10:13;;;;;;;3.00;1.05;;;;;;;16.85;52.88;101887.22;6311072;22;20009;-79
2021/01/14 01:12:38;;;;;;;1.77;0.90;;;;;;;16.85;52.63;101891.53;6261791;22;20008;-79
2021/01/14 01:15:05;;;;;;;2.28;1.00;;;;;;;16.83;52.57;101888.94;6225222;22;20007;-79
2021/01/14 01:17:31;;;;;;;2.05;0.93;;;;;;;16.85;52.67;101896.75;6327024;22;20043;-78
2021/01/14 01:24:53;;;;;;;1.75;0.80;;;;;;;16.84;52.33;101916.66;6331577;22;20023;-78
2021/01/14 01:27:19;;;;;;;1.92;0.85;;;;;;;16.83;52.56;101906.25;6281176;22;20010;-79
2021/01/14 01:29:44;;;;;;;1.95;0.95;;;;;;;16.83;52.72;101904.53;6308789;22;20007;-78
2021/01/14 01:32:10;;;;;;;2.90;0.82;;;;;;;16.82;52.52;101912.31;6283617;22;20018;-79
2021/01/14 01:34:38;;;;;;;2.15;0.80;;;;;;;16.80;52.58;101911.44;6333600;22;19991;-78
2021/01/14 01:37:03;;;;;;;1.23;0.70;;;;;;;16.80;52.55;101914.88;6300319;22;20023;-78
2021/01/14 01:39:30;;;;;;;2.65;0.75;;;;;;;16.83;52.53;101930.53;6249321;22;20027;-79
2021/01/14 01:41:58;;;;;;;2.30;0.80;;;;;;;16.82;52.48;101931.38;6277429;22;20000;-78
2021/01/14 01:44:25;;;;;;;2.28;0.80;;;;;;;16.83;52.49;101927.94;6276644;22;19998;-78
2021/01/14 01:46:54;;;;;;;1.60;0.80;;;;;;;16.83;52.44;101935.75;6253544;22;20010;-79
2021/01/14 01:49:19;;;;;;;2.80;0.82;;;;;;;16.82;52.44;101938.31;6277910;22;20004;-78
2021/01/14 01:51:46;;;;;;;1.88;0.82;;;;;;;16.82;52.27;101940.91;6278264;22;20019;-78
2021/01/14 01:54:13;;;;;;;1.50;0.80;;;;;;;16.80;52.27;101932.22;6276362;22;20015;-78
2021/01/14 01:56:39;;;;;;;1.85;0.70;;;;;;;16.80;52.32;101947.81;6228104;22;19991;-78
2021/01/14 01:59:07;;;;;;;1.50;0.68;;;;;;;16.81;52.23;101952.16;6276571;22;19999;-79
2021/01/14 02:01:37;;;;;;;2.17;0.90;;;;;;;16.80;52.40;101947.81;6278691;22;19994;-78
2021/01/14 02:04:06;;;;;;;2.22;0.80;;;;;;;16.79;52.05;101956.47;6304355;22;19988;-77
2021/01/14 02:06:36;;;;;;;2.50;1.02;;;;;;;16.80;52.27;101960.81;6304242;22;19995;-78
2021/01/14 02:09:06;;;;;;;1.80;0.80;;;;;;;16.79;52.29;101972.91;6304347;22;20006;-80
2021/01/14 02:11:41;;;;;;;2.08;0.82;;;;;;;16.78;52.44;101972.88;6335751;22;19987;-79
2021/01/14 02:14:24;;;;;;;1.40;0.80;;;;;;;16.80;51.84;101979.00;6304786;22;20022;-78
2021/01/14 02:16:51;;;;;;;1.85;0.85;;;;;;;16.79;52.10;101975.53;6303280;22;19994;-77
2021/01/14 02:19:36;;;;;;;2.83;0.75;;;;;;;16.78;52.21;101976.34;6328864;22;20007;-77
2021/01/14 02:22:09;;;;;;;2.55;0.70;;;;;;;16.79;51.86;101980.72;6317307;22;20003;-77
2021/01/14 02:24:49;;;;;;;1.48;0.63;;;;;;;16.77;51.86;101977.22;6284758;22;20000;-77
2021/01/14 02:27:15;;;;;;;1.77;0.80;;;;;;;16.77;52.24;101973.75;6310348;22;20006;-77
2021/01/14 02:29:42;;;;;;;2.63;0.90;;;;;;;16.77;51.96;101973.75;6312985;22;20007;-77
2021/01/14 02:32:15;;;;;;;1.88;0.70;;;;;;;16.78;51.76;101967.69;6282646;22;20422;-77
2021/01/14 02:34:40;;;;;;;3.15;0.70;;;;;;;16.76;51.55;101967.66;6312472;22;20018;-77
2021/01/14 02:37:06;;;;;;;2.42;0.73;;;;;;;16.76;51.81;101964.19;6283788;22;20019;-77
2021/01/14 02:42:06;;;;;;;2.20;0.68;;;;;;;16.76;51.65;101969.41;6328209;22;20056;-81
2021/01/14 02:44:36;;;;;;;1.25;0.77;;;;;;;16.75;51.61;101954.66;6258756;22;20015;-80
2021/01/14 02:47:03;;;;;;;0.98;0.52;;;;;;;16.74;51.78;101960.72;6279448;22;20030;-81
2021/01/14 02:49:33;;;;;;;1.38;0.60;;;;;;;16.75;51.68;101959.88;6328572;22;20014;-81
2021/01/14 02:52:02;;;;;;;2.63;0.80;;;;;;;16.78;51.66;101959.88;6338448;22;20018;-80
2021/01/14 02:54:29;;;;;;;2.30;0.88;;;;;;;16.77;52.07;101969.44;6338673;22;20003;-81
2021/01/14 02:56:54;;;;;;;1.33;0.68;;;;;;;16.74;51.50;101964.16;6314298;22;19986;-81
2021/01/14 02:59:20;;;;;;;2.10;0.77;;;;;;;16.75;51.71;101963.34;6314145;22;20029;-81
2021/01/14 03:01:45;;;;;;;1.42;0.60;;;;;;;16.77;51.58;101968.56;6289756;22;20005;-81
2021/01/14 03:04:10;;;;;;;1.45;0.80;;;;;;;16.79;51.58;101964.25;6316707;22;19995;-81
2021/01/14 03:06:36;;;;;;;2.00;0.70;;;;;;;16.79;51.66;101967.72;6341456;22;19990;-80
2021/01/14 03:09:02;;;;;;;1.27;0.60;;;;;;;16.78;51.50;101972.88;6341782;22;19994;-81
2021/01/14 03:11:33;;;;;;;1.25;0.43;;;;;;;16.79;51.51;101974.66;6341979;22;19991;-81
2021/01/14 03:13:58;;;;;;;1.23;0.60;;;;;;;16.78;51.12;101970.28;6347286;22;20326;-81
2021/01/14 03:16:24;;;;;;;1.60;0.55;;;;;;;16.78;51.63;101981.56;6284395;22;20011;-82
2021/01/14 03:18:51;;;;;;;2.28;0.55;;;;;;;16.77;51.72;101973.75;6310352;22;19998;-82
2021/01/14 03:21:23;;;;;;;2.30;0.60;;;;;;;16.77;51.55;101979.81;6285439;22;19991;-80
2021/01/14 03:23:48;;;;;;;1.90;0.77;;;;;;;16.76;51.55;101978.06;6285672;22;19993;-82
2021/01/14 03:26:18;;;;;;;1.45;0.68;;;;;;;16.75;51.13;101971.13;6309970;22;20007;-82
2021/01/14 03:28:44;;;;;;;1.38;0.63;;;;;;;16.76;51.64;101969.41;6310591;22;20033;-79
2021/01/14 03:31:11;;;;;;;1.90;0.80;;;;;;;16.76;51.64;101970.25;6286200;22;19983;-81
2021/01/14 03:36:16;;;;;;;2.67;0.73;;;;;;;16.75;51.51;101976.34;6275322;22;20064;-82
2021/01/14 03:38:42;;;;;;;1.58;0.70;;;;;;;16.74;51.65;101969.38;6249036;22;20000;-82
2021/01/14 03:41:13;;;;;;;0.95;0.50;;;;;;;16.75;51.66;101972.88;6224583;22;19988;-81
2021/01/14 03:43:39;;;;;;;2.38;0.90;;;;;;;16.74;51.13;101977.16;6275484;22;20000;-79
2021/01/14 03:46:07;;;;;;;2.13;0.80;;;;;;;16.74;51.13;101976.31;6223629;22;19999;-80
2021/01/14 03:48:38;;;;;;;2.60;0.70;;;;;;;16.74;51.41;101982.38;6224329;22;19996;-78
2021/01/14 03:51:03;;;;;;;1.27;0.70;;;;;;;16.73;51.20;101983.25;6249216;22;19991;-79
2021/01/14 03:53:28;;;;;;;1.35;0.60;;;;;;;16.73;51.30;101974.56;6224190;23;20000;-79
2021/01/14 03:59:19;;;;;;;0.88;0.60;;;;;;;16.73;51.15;101974.56;6250280;23;20355;-78
2021/01/14 04:01:50;;;;;;;1.50;0.70;;;;;;;16.72;51.05;101971.06;6196218;23;20032;-79
2021/01/14 04:04:17;;;;;;;1.58;0.75;;;;;;;16.72;51.09;101970.22;6222369;23;20004;-78
2021/01/14 04:06:42;;;;;;;1.88;0.63;;;;;;;16.71;51.17;101978.88;6248342;23;20335;-78
2021/01/14 04:09:24;;;;;;;1.63;0.60;;;;;;;16.71;51.20;101973.69;6232787;22;20011;-78
2021/01/14 04:11:49;;;;;;;1.20;0.57;;;;;;;16.71;51.01;101981.47;6256329;22;20046;-80
2021/01/14 04:14:15;;;;;;;1.30;0.40;;;;;;;16.71;51.33;101984.94;6280375;22;20011;-77
2021/01/14 04:16:40;;;;;;;1.58;0.70;;;;;;;16.71;51.16;101978.88;6279840;22;20003;-78
2021/01/14 04:19:06;;;;;;;1.88;0.70;;;;;;;16.72;51.15;101991.00;6280025;22;20003;-78
2021/01/14 04:21:31;;;;;;;1.20;0.57;;;;;;;16.71;51.15;101986.69;6279220;22;20008;-79
2021/01/14 04:23:56;;;;;;;1.85;0.68;;;;;;;16.70;51.31;101985.81;6231929;22;20004;-78
2021/01/14 04:26:22;;;;;;;1.65;0.60;;;;;;;16.69;51.03;101984.03;6258105;22;20604;-78
2021/01/14 04:28:47;;;;;;;1.85;0.68;;;;;;;16.70;51.14;101982.31;6205536;22;20031;-79
2021/01/14 04:31:12;;;;;;;1.77;0.60;;;;;;;16.69;50.91;101983.19;6253506;22;20035;-79
2021/01/14 04:33:38;;;;;;;1.80;0.70;;;;;;;16.69;50.53;101984.03;6234935;22;20011;-79
2021/01/14 04:36:04;;;;;;;2.78;0.60;;;;;;;16.69;50.82;101985.78;6210210;23;20027;-79
2021/01/14 04:38:29;;;;;;;1.65;0.70;;;;;;;16.67;50.75;101981.41;6223337;23;20020;-78
2021/01/14 04:40:59;;;;;;;2.38;0.60;;;;;;;16.67;50.96;101988.34;6221978;23;20031;-79
2021/01/14 04:43:27;;;;;;;1.10;0.70;;;;;;;16.68;50.92;101995.31;6223229;23;20154;-79
2021/01/14 04:45:56;;;;;;;1.40;0.60;;;;;;;16.66;51.12;101990.09;6222576;23;20030;-79
2021/01/14 04:48:22;;;;;;;2.20;0.70;;;;;;;16.67;50.79;101996.16;6249978;23;20071;-80
2021/01/14 04:50:49;;;;;;;2.72;0.65;;;;;;;16.66;50.50;101989.22;6223115;23;20419;-79
2021/01/14 04:53:19;;;;;;;1.35;0.60;;;;;;;16.64;51.01;101991.78;6223413;23;20416;-79
2021/01/14 04:55:46;;;;;;;3.83;0.60;;;;;;;16.65;50.63;101996.13;6249702;23;20055;-79
2021/01/14 04:58:18;;;;;;;1.80;0.70;;;;;;;16.65;50.85;101997.84;6223528;23;20007;-79
2021/01/14 05:00:51;;;;;;;3.40;0.80;;;;;;;16.64;50.77;101999.59;6224113;23;20000;-78
2021/01/14 05:03:30;;;;;;;1.20;0.52;;;;;;;16.63;50.42;101999.56;6250189;23;20078;-79
2021/01/14 05:05:56;;;;;;;1.33;0.70;;;;;;;16.63;50.80;102003.03;6222425;23;20012;-78
2021/01/14 05:08:32;;;;;;;3.85;0.68;;;;;;;16.63;50.67;102004.75;6222144;23;20024;-79
2021/01/14 05:10:59;;;;;;;1.42;0.70;;;;;;;16.62;50.77;102009.09;6221232;23;20027;-78
2021/01/14 05:13:28;;;;;;;1.58;0.70;;;;;;;16.61;50.80;102012.56;6248789;23;20490;-78
2021/01/14 05:15:54;;;;;;;1.30;0.63;;;;;;;16.62;50.93;102008.22;6248081;23;20004;-79
2021/01/14 05:18:19;;;;;;;1.30;0.55;;;;;;;16.62;50.79;102013.41;6255840;23;20006;-82
2021/01/14 05:20:44;;;;;;;1.20;0.70;;;;;;;16.61;50.70;102006.47;6271295;23;20007;-82
2021/01/14 05:23:12;;;;;;;1.25;0.52;;;;;;;16.61;50.53;102011.66;6219496;23;20436;-81
2021/01/14 05:25:51;;;;;;;1.05;0.50;;;;;;;16.59;50.63;102014.25;6269832;23;20004;-82
2021/01/14 05:28:17;;;;;;;1.38;0.70;;;;;;;16.61;50.52;102022.06;6270719;23;20059;-79
2021/01/14 05:30:43;;;;;;;1.17;0.60;;;;;;;16.60;50.61;102018.59;6267612;23;20019;-78
2021/01/14 05:33:17;;;;;;;1.77;0.70;;;;;;;16.60;50.65;102021.19;6243877;23;20053;-78
2021/01/14 05:35:48;;;;;;;3.00;0.60;;;;;;;16.60;50.57;102025.53;6258712;22;20039;-78
2021/01/14 05:38:31;;;;;;;1.95;0.70;;;;;;;16.60;50.51;102022.91;6268934;22;20007;-79
2021/01/14 05:41:18;;;;;;;1.55;0.68;;;;;;;16.58;50.46;102020.28;6272605;22;20042;-78
2021/01/14 05:44:04;;;;;;;2.60;0.70;;;;;;;16.58;50.44;102012.50;6274055;22;20003;-78
2021/01/14 05:46:31;;;;;;;2.47;0.75;;;;;;;16.58;50.38;102019.44;6273259;22;20008;-77
2021/01/14 05:48:59;;;;;;;1.58;0.75;;;;;;;16.57;50.38;102012.47;6245833;22;20009;-79
2021/01/14 05:51:29;;;;;;;1.70;0.65;;;;;;;16.59;50.10;102018.56;6297899;22;20014;-77
2021/01/14 05:54:12;;;;;;;3.17;0.95;;;;;;;16.59;50.28;102014.25;6298643;22;20003;-79
2021/01/14 05:56:37;;;;;;;2.05;0.90;;;;;;;16.62;50.16;102018.63;6297893;22;19995;-79
2021/01/14 05:59:05;;;;;;;2.42;1.08;;;;;;;16.61;50.40;102022.06;6279080;22;20025;-78
2021/01/14 06:01:31;;;;;;;3.70;1.45;;;;;;;16.62;50.18;102018.63;6320297;22;20012;-79
2021/01/14 06:04:13;;;;;;;3.13;1.17;;;;;;;16.63;50.19;102025.53;6282576;22;20034;-79
2021/01/14 06:06:42;;;;;;;3.95;1.20;;;;;;;16.63;50.22;102022.94;6256760;22;20011;-79
2021/01/14 06:09:07;;;;;;;4.05;1.38;;;;;;;16.63;50.39;102020.34;6269033;22;20521;-79
2021/01/14 06:11:34;;;;;;;6.25;1.00;;;;;;;16.69;50.48;102022.16;6278862;22;20081;-78
2021/01/14 06:14:00;;;;;;;2.75;1.20;;;;;;;16.72;50.30;102022.19;6250204;22;20457;-79
2021/01/14 06:16:28;;;;;;;6.60;1.05;;;;;;;16.69;50.31;102023.03;6249868;22;20014;-78
2021/01/14 06:19:07;;;;;;;2.13;0.98;;;;;;;16.69;50.44;102022.16;6278614;22;20000;-78
2021/01/14 06:21:59;;;;;;;4.53;1.08;;;;;;;16.70;50.53;102017.00;6250318;22;20498;-78
2021/01/14 06:24:25;;;;;;;2.95;0.75;;;;;;;16.70;50.57;102023.91;6250143;22;20038;-78
2021/01/14 06:27:21;;;;;;;2.85;0.98;;;;;;;16.71;50.53;102023.06;6278679;22;20014;-78
2021/01/14 06:29:47;;;;;;;5.47;1.13;;;;;;;16.71;50.77;102026.53;6274662;22;20010;-79
2021/01/14 06:32:15;;;;;;;2.05;0.80;;;;;;;16.71;50.66;102025.66;6227312;22;20398;-78
2021/01/14 06:34:42;;;;;;;3.47;0.90;;;;;;;16.71;50.83;102029.13;6252285;22;20004;-78
2021/01/14 06:37:18;;;;;;;4.25;0.95;;;;;;;16.72;50.74;102027.41;6252941;22;20098;-79
2021/01/14 06:39:45;;;;;;;2.30;1.00;;;;;;;16.71;50.99;102039.53;6253882;22;19995;-79
2021/01/14 06:42:21;;;;;;;3.08;1.10;;;;;;;16.72;50.83;102043.00;6280178;22;20019;-79
2021/01/14 06:45:05;;;;;;;3.90;0.85;;;;;;;16.72;50.96;102046.47;6253534;22;20095;-78
2021/01/14 06:47:36;;;;;;;4.43;0.88;;;;;;;16.72;50.91;102048.19;6281618;22;20004;-79
2021/01/14 06:50:19;;;;;;;2.17;0.77;;;;;;;16.72;50.87;102058.59;6253137;22;20007;-80
2021/01/14 06:52:48;;;;;;;;;;;;;;;16.72;50.82;102056.84;6280855;22;20056;-78
2021/01/14 06:55:15;;;;;;;3.60;0.80;;;;;;;16.72;50.79;102059.44;6252467;22;19917;-78
2021/01/14 06:57:42;;;;;;;2.17;0.85;;;;;;;16.72;50.66;102059.44;6254734;22;19996;-80
2021/01/14 07:00:10;;;;;;;1.77;0.80;;;;;;;16.72;50.84;102056.84;6283417;22;20087;-78
2021/01/14 07:02:35;;;;;;;1.65;0.85;;;;;;;16.72;50.91;102056.84;6253091;22;20067;-79
2021/01/14 07:05:02;;;;;;;1.40;0.65;;;;;;;16.76;50.69;102055.19;6251687;22;20042;-79
2021/01/14 07:07:27;;;;;;;2.53;1.02;;;;;;;16.90;50.05;102058.88;6278881;22;20004;-77
2021/01/14 07:10:10;;;;;;;5.00;0.80;;;;;;;16.95;50.16;102067.59;6252513;22;20137;-80
2021/01/14 07:12:40;;;;;;;7.20;1.55;;;;;;;16.96;50.17;102061.56;6253627;22;20010;-77
2021/01/14 07:15:09;;;;;;;3.80;0.98;;;;;;;16.99;50.14;102069.38;6251724;22;20008;-77
2021/01/14 07:17:39;;;;;;;1.70;0.80;;;;;;;16.99;50.20;102061.59;6279088;22;20478;-79
2021/01/14 07:20:12;;;;;;;4.28;0.80;;;;;;;17.00;50.26;102067.66;6280328;22;20034;-79
2021/01/14 07:22:45;;;;;;;4.95;0.85;;;;;;;17.00;50.34;102065.06;6279497;22;20075;-77
2021/01/14 07:25:13;;;;;;;4.20;0.85;;;;;;;17.01;50.19;102066.81;6278393;22;20011;-77
2021/01/14 07:27:40;;;;;;;6.40;1.00;;;;;;;17.03;50.49;102073.78;6226361;22;20043;-77
2021/01/14 07:30:06;;;;;;;4.32;0.90;;;;;;;17.08;50.56;102076.44;6251103;22;20043;-79
2021/01/14 07:32:58;;;;;;;2.28;0.80;;;;;;;17.05;50.77;102074.66;6252440;22;20035;-77
2021/01/14 07:35:44;;;;;;;2.80;0.80;;;;;;;17.05;50.41;102081.59;6257040;22;20346;-77
2021/01/14 07:38:53;;;;;;;3.60;0.80;;;;;;;17.03;50.25;102081.56;6288263;22;20034;-79
2021/01/14 07:41:21;;;;;;;2.30;0.73;;;;;;;17.08;50.08;102081.63;6323097;22;20015;-78
2021/01/14 07:44:14;;;;;;;2.42;0.70;;;;;;;17.10;50.26;102089.47;6252397;23;20529;-80
2021/01/14 07:46:40;;;;;;;2.33;0.70;;;;;;;17.07;49.98;102082.47;6250780;23;20004;-80
2021/01/14 07:49:29;;;;;;;1.67;0.70;;;;;;;17.11;49.99;102086.00;6202010;23;20008;-80
2021/01/14 07:54:31;;;;;;;3.10;0.80;;;;;;;17.11;50.12;102101.59;6292779;22;20019;-78
2021/01/14 07:57:05;;;;;;;3.63;0.88;;;;;;;17.11;50.19;102097.25;6269756;22;20019;-77
2021/01/14 07:59:53;;;;;;;1.70;0.80;;;;;;;17.12;50.11;102108.56;6287823;22;20426;-76
2021/01/14 08:04:57;;;;;;;3.08;0.77;;;;;;;17.18;49.76;102119.03;6289675;22;20389;-78
2021/01/14 08:07:33;;;;;;;1.65;0.80;;;;;;;17.18;49.77;102111.22;6248008;22;20031;-79
2021/01/14 08:10:37;;;;;;;1.83;0.68;;;;;;;17.19;49.72;102121.66;6257323;22;20465;-77
2021/01/14 09:31:33;;;;;;;1.23;0.52;;;;;;;17.31;48.74;102148.66;6291113;22;20092;-79
2021/01/14 09:33:59;;;;;;;1.48;0.70;;;;;;;17.33;48.99;102150.44;6256857;22;20394;-77
2021/01/14 09:36:33;;;;;;;1.00;0.50;;;;;;;17.36;48.72;102155.69;6233125;22;20007;-80
2021/01/14 09:39:08;;;;;;;1.27;0.60;;;;;;;17.39;48.48;102154.84;6233595;22;20015;-79
2021/01/14 09:41:38;;;;;;;1.27;0.65;;;;;;;17.39;48.46;102153.13;6283891;22;20016;-79
2021/01/14 09:44:15;;;;;;;0.90;0.55;;;;;;;17.40;48.54;102156.63;6267550;22;20007;-80
2021/01/14 09:46:45;;;;;;;5.75;0.77;;;;;;;17.41;48.68;102151.41;6301416;22;20002;-81
2021/01/14 09:49:14;;;;;;;1.60;0.68;;;;;;;17.44;48.36;102155.75;6278434;22;20009;-80
2021/01/14 09:51:42;;;;;;;1.42;0.70;;;;;;;17.44;48.47;102154.06;6278837;22;20004;-81
2021/01/14 09:54:10;;;;;;;1.27;0.60;;;;;;;17.46;48.30;102152.34;6253431;22;19988;-82
2021/01/14 09:56:38;;;;;;;1.42;0.60;;;;;;;17.51;48.43;102154.09;6279055;22;20033;-81
2021/01/14 09:59:36;;;;;;;2.92;0.60;;;;;;;17.57;48.04;102156.78;6278625;22;20018;-81
2021/01/14 10:14:14;;;;;;;3.50;0.80;;;;;;;17.52;48.17;102148.94;6325466;22;20068;-77
2021/01/14 10:17:10;;;;;;;1.50;0.68;;;;;;;17.52;48.07;102146.31;6287850;22;20011;31
2021/01/14 10:19:50;;;;;;;1.88;0.70;;;;;;;17.53;48.26;102158.50;6221481;23;20448;-77
2021/01/14 10:25:04;;;;;;;1.60;0.70;;;;;;;17.58;47.86;102149.00;6288164;22;20023;-77
2021/01/14 10:27:40;;;;;;;1.38;0.55;;;;;;;17.60;47.88;102151.63;6309761;22;20063;-78
2021/01/14 10:33:28;;;;;;;1.13;0.70;;;;;;;17.62;47.54;102156.00;6312611;22;20018;-77
2021/01/14 10:36:13;;;;;;;1.98;0.52;;;;;;;17.62;47.88;102148.19;6313044;22;20015;-76
2021/01/14 11:04:58;;;;;;;2.13;0.63;;;;;;;17.61;47.29;102129.94;6306183;22;20027;-77
2021/01/14 11:07:24;;;;;;;1.23;0.60;;;;;;;17.63;47.08;102125.63;6308246;22;20099;-76
2021/01/14 11:09:53;;;;;;;3.88;0.80;;;;;;;17.63;47.12;102123.88;6254689;22;20106;-77
2021/01/14 11:12:19;;;;;;;2.15;0.68;;;;;;;17.65;47.47;102129.13;6254418;22;20007;-77
2021/01/14 11:14:45;;;;;;;2.50;0.90;;;;;;;17.65;47.45;102122.19;6255063;22;20395;-78
2021/01/14 11:17:14;;;;;;;3.65;1.10;;;;;;;17.68;47.54;102122.22;6308025;22;20026;-76
2021/01/14 11:19:40;;;;;;;2.50;1.00;;;;;;;17.72;47.77;102125.72;6282103;22;20023;-77
2021/01/14 11:22:17;;;;;;;1.85;1.02;;;;;;;17.71;47.60;102131.78;6308264;22;20338;-77
2021/01/14 11:25:03;;;;;;;1.45;0.98;;;;;;;17.71;47.76;102123.13;6284552;22;20070;-77
2021/01/14 11:27:29;;;;;;;0.85;0.63;;;;;;;17.75;47.82;102122.28;6283340;22;20011;-78
2021/01/14 11:30:13;;;;;;;1.40;0.90;;;;;;;17.73;47.71;102124.00;6311577;22;20003;-77
2021/01/14 11:32:38;;;;;;;;;;;;;;;17.72;47.78;102123.09;6285938;22;19999;-77
2021/01/14 11:35:05;;;;;;;1.58;1.05;;;;;;;17.72;47.65;102115.31;6284445;22;20271;-78
2021/01/14 11:37:30;;;;;;;1.55;0.80;;;;;;;17.72;47.65;102117.03;6236053;22;20027;-77
2021/01/14 11:39:57;;;;;;;1.50;0.80;;;;;;;17.66;47.76;102116.13;6200471;23;20008;-78
2021/01/14 11:42:26;;;;;;;1.23;0.80;;;;;;;17.68;47.55;102113.53;6200259;23;20012;-76
2021/01/14 11:44:51;;;;;;;2.33;0.90;;;;;;;17.67;47.67;102110.06;6226987;23;20071;-77
2021/01/14 11:47:18;;;;;;;1.00;0.77;;;;;;;17.68;47.78;102113.53;6202234;23;20435;-78
2021/01/14 11:49:44;;;;;;;1.30;0.90;;;;;;;17.67;48.00;102109.19;6224183;23;20008;-76
2021/01/14 11:52:10;;;;;;;3.42;1.00;;;;;;;17.68;47.78;102119.63;6223803;23;20031;-76
2021/01/14 12:05:32;;;;;;;4.50;2.15;;;;;;;17.73;47.75;102101.44;6315115;22;20023;-77
2021/01/14 12:07:58;;;;;;;8.05;1.92;;;;;;;17.73;47.40;102101.44;6336250;22;20009;-77
2021/01/14 12:30:37;;;;;;;3.33;1.52;;;;;;;17.67;47.70;102081.41;6315662;22;20045;-81
2021/01/14 12:52:50;;;;;;;2.78;1.40;;;;;;;17.76;47.05;102077.16;6295459;22;20061;-81
2021/01/14 12:59:03;;;;;;;3.97;1.20;;;;;;;17.73;47.22;102066.72;6318845;22;20023;-82
2021/01/14 13:57:49;;;;;;;2.28;0.90;;;;;;;17.75;47.08;102057.22;6321269;22;20026;-79
2021/01/14 14:00:33;;;;;;;2.30;0.93;;;;;;;17.73;47.17;102059.78;6292633;22;20015;-80
2021/01/14 14:03:05;;;;;;;2.63;1.00;;;;;;;17.73;47.12;102045.91;6289088;22;20011;-79
2021/01/14 14:26:16;;;;;;;1.50;0.88;;;;;;;17.68;46.90;102054.53;6299942;22;20023;-77
2021/01/14 14:28:49;;;;;;;2.30;1.00;;;;;;;17.71;47.14;102061.50;6255939;22;20369;-76
2021/01/14 14:42:53;;;;;;;1.48;0.90;;;;;;;17.69;47.17;102045.84;6283011;22;20041;-77
2021/01/14 14:47:54;;;;;;;2.50;0.90;;;;;;;17.68;47.07;102054.53;6267495;22;20024;-77
2021/01/14 14:50:22;;;;;;;1.20;0.75;;;;;;;17.66;47.44;102050.19;6274031;22;20019;-77
2021/01/14 14:52:54;;;;;;;1.95;1.00;;;;;;;17.67;47.30;102059.72;6273694;22;19988;-77
2021/01/14 14:59:19;;;;;;;1.20;0.68;;;;;;;17.63;47.35;102051.00;6210291;23;20044;-77
2021/01/14 15:25:29;;;;;;;1.77;0.90;;;;;;;17.59;47.57;102054.44;6313048;22;20023;-77
2021/01/14 15:43:37;;;;;;;3.72;1.00;;;;;;;17.48;47.62;102064.75;6318244;22;20026;-76
2021/01/14 15:46:07;;;;;;;1.50;0.80;;;;;;;17.46;47.78;102066.47;6302537;22;20021;-77
2021/01/14 15:48:34;;;;;;;1.75;0.73;;;;;;;17.50;47.68;102075.16;6283454;22;20020;-77
2021/01/14 15:57:23;;;;;;;2.75;0.80;;;;;;;17.48;47.51;102082.09;6328700;22;20110;-78
2021/01/14 16:06:00;;;;;;;1.05;0.70;;;;;;;17.48;47.23;102090.78;6323318;22;20097;-78
2021/01/14 16:08:25;;;;;;;0.98;0.70;;;;;;;17.46;47.46;102099.41;6307689;22;20023;-79
2021/01/14 16:10:51;;;;;;;2.13;0.70;;;;;;;17.45;47.53;102103.75;6270648;22;20011;-80
2021/01/14 16:21:44;;;;;;;1.23;0.80;;;;;;;17.45;47.45;102105.47;6322681;22;20094;-80
2021/01/14 16:47:35;;;;;;;3.03;0.88;;;;;;;17.47;47.38;102114.19;6289126;22;20015;-79
2021/01/14 16:50:08;;;;;;;1.30;0.80;;;;;;;17.46;47.65;102117.63;6317729;22;20007;-78
2021/01/14 17:12:05;;;;;;;0.93;0.70;;;;;;;17.49;47.86;102141.09;6329108;22;20071;-79
2021/01/14 17:17:55;;;;;;;1.27;0.80;;;;;;;17.47;48.06;102145.41;6330806;22;20102;-77
2021/01/14 17:24:21;;;;;;;1.25;0.80;;;;;;;17.39;48.21;102147.91;6331221;22;20053;-78
2021/01/14 17:27:11;;;;;;;2.90;0.90;;;;;;;17.34;48.27;102152.19;6325228;22;20033;-80
2021/01/14 17:39:21;;;;;;;2.45;1.10;;;;;;;17.24;47.89;102164.19;6314444;22;20384;-78
2021/01/14 17:42:41;;;;;;;1.23;0.88;;;;;;;17.22;47.75;102172.84;6310492;22;20079;-79
2021/01/14 17:45:29;;;;;;;1.15;0.80;;;;;;;17.20;47.68;102165.03;6169366;23;20024;-78
2021/01/14 17:48:32;;;;;;;1.35;0.85;;;;;;;17.18;47.42;102168.44;6216632;22;20524;-79
2021/01/14 17:51:45;;;;;;;1.63;1.13;;;;;;;17.17;47.63;102177.13;6186957;23;20427;-77
2021/01/14 17:54:30;;;;;;;2.15;0.77;;;;;;;17.16;47.77;102177.94;6246621;23;20080;-78
2021/01/14 17:56:58;;;;;;;1.27;0.90;;;;;;;17.16;47.93;102183.16;6249688;23;20032;-78
2021/01/14 18:00:07;;;;;;;1.65;0.80;;;;;;;17.16;48.06;102188.34;6249300;23;20466;-77
2021/01/14 18:02:39;;;;;;;2.58;0.90;;;;;;;17.16;48.29;102188.34;6185796;23;20542;-78
2021/01/14 18:05:09;;;;;;;1.10;0.80;;;;;;;17.16;47.86;102190.97;6186369;23;20013;-78
2021/01/14 18:11:15;;;;;;;1.27;0.80;;;;;;;17.14;48.72;102198.75;6184287;23;20066;-78
2021/01/14 18:13:48;;;;;;;1.20;0.75;;;;;;;17.14;48.70;102195.28;6213788;23;20313;-77
2021/01/14 18:19:15;;;;;;;1.63;0.90;;;;;;;17.13;48.69;102215.22;6292841;22;20035;-77
2021/01/14 18:25:14;;;;;;;1.45;0.95;;;;;;;17.11;49.04;102219.50;6249221;22;20086;-77
2021/01/14 18:27:42;;;;;;;1.50;1.00;;;;;;;17.10;48.95;102222.13;6248827;23;20007;-76
2021/01/14 18:30:19;;;;;;;2.13;1.02;;;;;;;17.10;49.06;102242.91;6213772;23;20016;-76
2021/01/14 18:33:04;;;;;;;1.70;1.20;;;;;;;17.09;49.17;102241.16;6239100;22;20447;-77
2021/01/14 18:35:33;;;;;;;2.08;1.02;;;;;;;17.08;49.01;102244.63;6278176;22;20011;-76
2021/01/14 18:38:39;;;;;;;1.75;1.10;;;;;;;17.07;49.04;102243.72;6252139;22;20011;-76
2021/01/14 18:44:57;;;;;;;1.42;0.93;;;;;;;17.05;49.06;102250.66;6214815;23;20408;-77
2021/01/14 18:47:41;;;;;;;2.03;0.90;;;;;;;17.03;49.15;102252.34;6190298;23;20020;-76
2021/01/14 18:52:53;;;;;;;1.70;1.00;;;;;;;17.04;49.23;102256.69;6307401;22;20023;-78
2021/01/14 18:55:46;;;;;;;1.48;1.00;;;;;;;17.03;49.14;102254.97;6272896;22;20023;-78